LFRC/CER METAR and TAF weather

Enter ICAO airport designator
Station Type Date Time Source
LFRC METAR 2020/01/28 11:30 UTC NOAA

LFRC 281130Z AUTO 27019KT 9999 FEW033/// SCT047/// BKN130/// ///CB 07/02 Q1002 TEMPO 25030G55KT 2000 TSRAGS BKN012CB


Station Type Date Time Source
LFRC Decoded METAR 2020/01/28 11:30 UTC NOAA

Cherbourg / Maupertus, France (LFRC) 49-39N 001-28W 139M
Jan 28, 2020 - 06:30 AM EST / 2020.01.28 1130 UTC
Wind: from the W (270 degrees) at 22 MPH (19 KT):0
Visibility: greater than 7 mile(s):0
Sky conditions: mostly cloudy
Weather: Cumulonimbus clouds observed
Temperature: 44 F (7 C)
Dew Point: 35 F (2 C)
Relative Humidity: 70%
Pressure (altimeter): 29.59 in. Hg (1002 hPa)
ob: LFRC 281130Z AUTO 27019KT 9999 FEW033/// SCT047/// BKN130/// ///CB 07/02 Q1002 TEMPO 25030G55KT 2000 TSRAGS BKN012CB
cycle: 11

Station Type Date Time Source
LFRC TAF 2008/10/12 17:07 UTC NOAA

TAF
AMD LFRC 121707Z 121721 CNL

Example: see airport list